sensor_id;sensor_type;location;lat;lon;timestamp;P1;durP1;ratioP1;P2;durP2;ratioP2
21503;SDS011;10913;51.992;9.228;2022-12-07T00:01:23;17.90;;;13.32;;
21503;SDS011;10913;51.992;9.228;2022-12-07T00:03:55;20.13;;;14.82;;
21503;SDS011;10913;51.992;9.228;2022-12-07T00:06:25;21.25;;;14.75;;
21503;SDS011;10913;51.992;9.228;2022-12-07T00:08:51;21.27;;;15.23;;
21503;SDS011;10913;51.992;9.228;2022-12-07T00:11:18;22.63;;;15.52;;
21503;SDS011;10913;51.992;9.228;2022-12-07T00:13:46;21.77;;;15.15;;
21503;SDS011;10913;51.992;9.228;2022-12-07T00:16:13;19.00;;;14.60;;
21503;SDS011;10913;51.992;9.228;2022-12-07T00:18:40;21.33;;;14.75;;
21503;SDS011;10913;51.992;9.228;2022-12-07T00:21:08;19.33;;;14.50;;
21503;SDS011;10913;51.992;9.228;2022-12-07T00:23:55;21.38;;;14.73;;
21503;SDS011;10913;51.992;9.228;2022-12-07T00:26:22;22.00;;;14.77;;
21503;SDS011;10913;51.992;9.228;2022-12-07T00:28:50;21.15;;;14.73;;
21503;SDS011;10913;51.992;9.228;2022-12-07T00:31:18;21.52;;;14.57;;
21503;SDS011;10913;51.992;9.228;2022-12-07T00:33:46;22.85;;;15.82;;
21503;SDS011;10913;51.992;9.228;2022-12-07T00:36:13;22.25;;;15.55;;
21503;SDS011;10913;51.992;9.228;2022-12-07T00:38:41;20.02;;;13.98;;
21503;SDS011;10913;51.992;9.228;2022-12-07T00:41:17;17.80;;;13.80;;
21503;SDS011;10913;51.992;9.228;2022-12-07T00:43:45;19.05;;;14.30;;
21503;SDS011;10913;51.992;9.228;2022-12-07T00:46:11;18.58;;;14.23;;
21503;SDS011;10913;51.992;9.228;2022-12-07T00:48:38;19.10;;;15.10;;
21503;SDS011;10913;51.992;9.228;2022-12-07T00:51:04;20.58;;;14.50;;
21503;SDS011;10913;51.992;9.228;2022-12-07T00:53:31;20.00;;;15.07;;
21503;SDS011;10913;51.992;9.228;2022-12-07T00:56:06;17.25;;;14.10;;
21503;SDS011;10913;51.992;9.228;2022-12-07T00:58:37;18.13;;;14.02;;
21503;SDS011;10913;51.992;9.228;2022-12-07T01:01:02;20.02;;;14.98;;
21503;SDS011;10913;51.992;9.228;2022-12-07T01:03:29;20.27;;;15.45;;
21503;SDS011;10913;51.992;9.228;2022-12-07T01:05:56;21.25;;;15.73;;
21503;SDS011;10913;51.992;9.228;2022-12-07T01:08:22;20.52;;;16.00;;
21503;SDS011;10913;51.992;9.228;2022-12-07T01:10:49;21.50;;;15.88;;
21503;SDS011;10913;51.992;9.228;2022-12-07T01:13:15;24.48;;;17.15;;
21503;SDS011;10913;51.992;9.228;2022-12-07T01:15:41;22.75;;;16.85;;
21503;SDS011;10913;51.992;9.228;2022-12-07T01:18:07;24.20;;;17.65;;
21503;SDS011;10913;51.992;9.228;2022-12-07T01:20:33;23.42;;;16.67;;
21503;SDS011;10913;51.992;9.228;2022-12-07T01:22:59;26.65;;;18.50;;
21503;SDS011;10913;51.992;9.228;2022-12-07T01:25:25;25.20;;;17.58;;
21503;SDS011;10913;51.992;9.228;2022-12-07T01:27:50;25.35;;;17.20;;
21503;SDS011;10913;51.992;9.228;2022-12-07T01:30:15;26.73;;;18.58;;
21503;SDS011;10913;51.992;9.228;2022-12-07T01:32:41;25.38;;;18.67;;
21503;SDS011;10913;51.992;9.228;2022-12-07T01:35:07;26.23;;;19.02;;
21503;SDS011;10913;51.992;9.228;2022-12-07T01:37:36;28.08;;;18.95;;
21503;SDS011;10913;51.992;9.228;2022-12-07T01:40:03;31.70;;;20.95;;
21503;SDS011;10913;51.992;9.228;2022-12-07T01:42:30;30.23;;;20.83;;
21503;SDS011;10913;51.992;9.228;2022-12-07T01:47:40;30.17;;;20.20;;
21503;SDS011;10913;51.992;9.228;2022-12-07T01:50:08;28.90;;;19.92;;
21503;SDS011;10913;51.992;9.228;2022-12-07T01:52:33;29.75;;;19.83;;
21503;SDS011;10913;51.992;9.228;2022-12-07T01:55:02;27.52;;;20.23;;
21503;SDS011;10913;51.992;9.228;2022-12-07T01:57:32;28.08;;;19.42;;
21503;SDS011;10913;51.992;9.228;2022-12-07T02:00:02;32.05;;;21.63;;
21503;SDS011;10913;51.992;9.228;2022-12-07T02:02:30;31.42;;;21.73;;
21503;SDS011;10913;51.992;9.228;2022-12-07T02:04:59;41.15;;;29.80;;
21503;SDS011;10913;51.992;9.228;2022-12-07T02:07:26;39.33;;;28.80;;
21503;SDS011;10913;51.992;9.228;2022-12-07T02:09:53;33.40;;;23.27;;
21503;SDS011;10913;51.992;9.228;2022-12-07T02:12:19;34.88;;;23.30;;
21503;SDS011;10913;51.992;9.228;2022-12-07T02:14:47;32.95;;;20.00;;
21503;SDS011;10913;51.992;9.228;2022-12-07T02:27:56;28.95;;;20.48;;
21503;SDS011;10913;51.992;9.228;2022-12-07T02:30:31;29.17;;;20.13;;
21503;SDS011;10913;51.992;9.228;2022-12-07T02:33:00;39.80;;;25.65;;
21503;SDS011;10913;51.992;9.228;2022-12-07T02:35:54;34.90;;;23.80;;
21503;SDS011;10913;51.992;9.228;2022-12-07T02:38:26;29.63;;;19.88;;
21503;SDS011;10913;51.992;9.228;2022-12-07T02:41:13;30.13;;;20.98;;
21503;SDS011;10913;51.992;9.228;2022-12-07T02:43:45;32.33;;;21.15;;
21503;SDS011;10913;51.992;9.228;2022-12-07T02:46:25;30.17;;;19.95;;
21503;SDS011;10913;51.992;9.228;2022-12-07T02:48:56;31.08;;;19.80;;
21503;SDS011;10913;51.992;9.228;2022-12-07T02:51:24;29.73;;;18.25;;
21503;SDS011;10913;51.992;9.228;2022-12-07T02:53:50;26.63;;;17.30;;
21503;SDS011;10913;51.992;9.228;2022-12-07T02:58:58;26.45;;;18.52;;
21503;SDS011;10913;51.992;9.228;2022-12-07T03:07:11;27.15;;;17.88;;
21503;SDS011;10913;51.992;9.228;2022-12-07T03:10:05;25.05;;;16.40;;
21503;SDS011;10913;51.992;9.228;2022-12-07T03:15:43;25.05;;;15.70;;
21503;SDS011;10913;51.992;9.228;2022-12-07T03:18:15;27.77;;;16.95;;
21503;SDS011;10913;51.992;9.228;2022-12-07T03:20:44;26.42;;;16.27;;
21503;SDS011;10913;51.992;9.228;2022-12-07T03:23:13;20.38;;;13.60;;
21503;SDS011;10913;51.992;9.228;2022-12-07T03:25:42;19.90;;;13.75;;
21503;SDS011;10913;51.992;9.228;2022-12-07T03:28:12;23.63;;;14.90;;
21503;SDS011;10913;51.992;9.228;2022-12-07T03:30:45;22.48;;;14.35;;
21503;SDS011;10913;51.992;9.228;2022-12-07T03:33:18;23.58;;;15.00;;
21503;SDS011;10913;51.992;9.228;2022-12-07T03:35:57;23.27;;;14.52;;
21503;SDS011;10913;51.992;9.228;2022-12-07T03:38:40;24.65;;;15.48;;
21503;SDS011;10913;51.992;9.228;2022-12-07T03:41:11;25.35;;;15.55;;
21503;SDS011;10913;51.992;9.228;2022-12-07T03:43:49;22.33;;;14.30;;
21503;SDS011;10913;51.992;9.228;2022-12-07T03:48:47;21.92;;;14.82;;
21503;SDS011;10913;51.992;9.228;2022-12-07T03:56:46;17.30;;;11.63;;
21503;SDS011;10913;51.992;9.228;2022-12-07T03:59:14;19.05;;;11.85;;
21503;SDS011;10913;51.992;9.228;2022-12-07T04:01:41;20.75;;;13.70;;
21503;SDS011;10913;51.992;9.228;2022-12-07T04:04:16;21.08;;;13.55;;
21503;SDS011;10913;51.992;9.228;2022-12-07T04:06:42;23.60;;;13.13;;
21503;SDS011;10913;51.992;9.228;2022-12-07T04:09:07;18.58;;;13.18;;
21503;SDS011;10913;51.992;9.228;2022-12-07T04:11:33;18.67;;;11.70;;
21503;SDS011;10913;51.992;9.228;2022-12-07T04:13:58;16.85;;;12.05;;
21503;SDS011;10913;51.992;9.228;2022-12-07T04:16:42;18.67;;;11.43;;
21503;SDS011;10913;51.992;9.228;2022-12-07T04:19:07;21.70;;;12.52;;
21503;SDS011;10913;51.992;9.228;2022-12-07T04:21:33;20.35;;;12.23;;
21503;SDS011;10913;51.992;9.228;2022-12-07T04:23:58;15.25;;;10.52;;
21503;SDS011;10913;51.992;9.228;2022-12-07T04:26:23;15.68;;;10.60;;
21503;SDS011;10913;51.992;9.228;2022-12-07T04:28:49;16.95;;;10.77;;
21503;SDS011;10913;51.992;9.228;2022-12-07T04:31:14;15.88;;;10.75;;
21503;SDS011;10913;51.992;9.228;2022-12-07T04:33:39;22.55;;;11.93;;
21503;SDS011;10913;51.992;9.228;2022-12-07T04:36:05;18.23;;;11.02;;
21503;SDS011;10913;51.992;9.228;2022-12-07T04:38:30;19.70;;;12.07;;
21503;SDS011;10913;51.992;9.228;2022-12-07T04:40:56;19.58;;;11.10;;
21503;SDS011;10913;51.992;9.228;2022-12-07T04:43:21;17.90;;;9.93;;
21503;SDS011;10913;51.992;9.228;2022-12-07T04:45:47;16.83;;;10.88;;
21503;SDS011;10913;51.992;9.228;2022-12-07T04:48:13;15.90;;;10.07;;
21503;SDS011;10913;51.992;9.228;2022-12-07T04:50:42;15.30;;;9.75;;
21503;SDS011;10913;51.992;9.228;2022-12-07T04:53:07;16.95;;;10.07;;
21503;SDS011;10913;51.992;9.228;2022-12-07T04:55:32;17.20;;;9.77;;
21503;SDS011;10913;51.992;9.228;2022-12-07T04:57:58;13.10;;;9.82;;
21503;SDS011;10913;51.992;9.228;2022-12-07T05:00:23;16.17;;;10.05;;
21503;SDS011;10913;51.992;9.228;2022-12-07T05:02:48;14.10;;;9.10;;
21503;SDS011;10913;51.992;9.228;2022-12-07T05:05:14;15.95;;;11.25;;
21503;SDS011;10913;51.992;9.228;2022-12-07T05:07:39;14.98;;;10.38;;
21503;SDS011;10913;51.992;9.228;2022-12-07T05:10:05;15.60;;;10.27;;
21503;SDS011;10913;51.992;9.228;2022-12-07T05:12:31;12.43;;;8.60;;
21503;SDS011;10913;51.992;9.228;2022-12-07T05:14:56;16.35;;;9.60;;
21503;SDS011;10913;51.992;9.228;2022-12-07T05:17:21;14.75;;;9.48;;
21503;SDS011;10913;51.992;9.228;2022-12-07T05:19:47;12.98;;;9.02;;
21503;SDS011;10913;51.992;9.228;2022-12-07T05:22:12;15.20;;;9.32;;
21503;SDS011;10913;51.992;9.228;2022-12-07T05:24:38;14.38;;;9.30;;
21503;SDS011;10913;51.992;9.228;2022-12-07T05:27:03;15.60;;;9.20;;
21503;SDS011;10913;51.992;9.228;2022-12-07T05:29:29;13.80;;;9.07;;
21503;SDS011;10913;51.992;9.228;2022-12-07T05:31:54;13.48;;;8.80;;
21503;SDS011;10913;51.992;9.228;2022-12-07T05:34:20;15.40;;;9.32;;
21503;SDS011;10913;51.992;9.228;2022-12-07T05:36:45;13.55;;;8.68;;
21503;SDS011;10913;51.992;9.228;2022-12-07T05:39:10;10.90;;;8.02;;
21503;SDS011;10913;51.992;9.228;2022-12-07T05:41:36;12.93;;;8.43;;
21503;SDS011;10913;51.992;9.228;2022-12-07T05:44:20;11.37;;;7.40;;
21503;SDS011;10913;51.992;9.228;2022-12-07T05:46:45;11.07;;;6.88;;
21503;SDS011;10913;51.992;9.228;2022-12-07T05:49:10;15.35;;;8.45;;
21503;SDS011;10913;51.992;9.228;2022-12-07T05:51:36;15.05;;;7.93;;
21503;SDS011;10913;51.992;9.228;2022-12-07T05:54:01;15.57;;;8.35;;
21503;SDS011;10913;51.992;9.228;2022-12-07T05:56:27;15.40;;;8.77;;
21503;SDS011;10913;51.992;9.228;2022-12-07T05:58:52;14.43;;;7.38;;
21503;SDS011;10913;51.992;9.228;2022-12-07T06:01:37;8.20;;;6.25;;
21503;SDS011;10913;51.992;9.228;2022-12-07T06:04:02;12.75;;;7.28;;
21503;SDS011;10913;51.992;9.228;2022-12-07T06:06:28;11.68;;;7.57;;
21503;SDS011;10913;51.992;9.228;2022-12-07T06:08:53;10.57;;;7.25;;
21503;SDS011;10913;51.992;9.228;2022-12-07T06:11:19;10.25;;;6.97;;
21503;SDS011;10913;51.992;9.228;2022-12-07T06:14:03;10.70;;;7.97;;
21503;SDS011;10913;51.992;9.228;2022-12-07T06:16:28;10.82;;;7.38;;
21503;SDS011;10913;51.992;9.228;2022-12-07T06:18:53;13.75;;;7.75;;
21503;SDS011;10913;51.992;9.228;2022-12-07T06:21:19;11.30;;;7.30;;
21503;SDS011;10913;51.992;9.228;2022-12-07T06:23:44;13.15;;;7.63;;
21503;SDS011;10913;51.992;9.228;2022-12-07T06:26:09;11.25;;;7.40;;
21503;SDS011;10913;51.992;9.228;2022-12-07T06:28:35;12.45;;;7.80;;
21503;SDS011;10913;51.992;9.228;2022-12-07T06:31:00;13.82;;;7.90;;
21503;SDS011;10913;51.992;9.228;2022-12-07T06:33:27;14.77;;;7.82;;
21503;SDS011;10913;51.992;9.228;2022-12-07T06:35:53;14.02;;;7.05;;
21503;SDS011;10913;51.992;9.228;2022-12-07T06:38:19;11.07;;;7.07;;
21503;SDS011;10913;51.992;9.228;2022-12-07T06:40:44;13.30;;;7.40;;
21503;SDS011;10913;51.992;9.228;2022-12-07T06:43:10;10.15;;;6.90;;
21503;SDS011;10913;51.992;9.228;2022-12-07T06:45:35;13.68;;;7.47;;
21503;SDS011;10913;51.992;9.228;2022-12-07T06:48:04;9.45;;;7.25;;
21503;SDS011;10913;51.992;9.228;2022-12-07T06:50:29;11.38;;;7.13;;
21503;SDS011;10913;51.992;9.228;2022-12-07T06:52:54;11.43;;;6.28;;
21503;SDS011;10913;51.992;9.228;2022-12-07T06:55:20;11.35;;;6.22;;
21503;SDS011;10913;51.992;9.228;2022-12-07T06:57:48;11.85;;;6.95;;
21503;SDS011;10913;51.992;9.228;2022-12-07T07:00:14;12.57;;;6.30;;
21503;SDS011;10913;51.992;9.228;2022-12-07T07:02:40;11.52;;;7.40;;
21503;SDS011;10913;51.992;9.228;2022-12-07T07:05:05;10.48;;;7.25;;
21503;SDS011;10913;51.992;9.228;2022-12-07T07:07:31;12.40;;;7.35;;
21503;SDS011;10913;51.992;9.228;2022-12-07T07:09:56;10.40;;;6.75;;
21503;SDS011;10913;51.992;9.228;2022-12-07T07:12:22;10.70;;;7.18;;
21503;SDS011;10913;51.992;9.228;2022-12-07T07:14:47;10.90;;;7.40;;
21503;SDS011;10913;51.992;9.228;2022-12-07T07:17:12;12.77;;;6.60;;
21503;SDS011;10913;51.992;9.228;2022-12-07T07:19:38;12.43;;;6.55;;
21503;SDS011;10913;51.992;9.228;2022-12-07T07:22:03;14.85;;;7.93;;
21503;SDS011;10913;51.992;9.228;2022-12-07T07:24:29;12.35;;;7.60;;
21503;SDS011;10913;51.992;9.228;2022-12-07T07:26:54;14.38;;;8.18;;
21503;SDS011;10913;51.992;9.228;2022-12-07T07:29:20;9.68;;;8.20;;
21503;SDS011;10913;51.992;9.228;2022-12-07T07:31:45;14.75;;;8.27;;
21503;SDS011;10913;51.992;9.228;2022-12-07T07:34:10;12.20;;;8.02;;
21503;SDS011;10913;51.992;9.228;2022-12-07T07:36:36;11.02;;;7.68;;
21503;SDS011;10913;51.992;9.228;2022-12-07T07:39:01;9.93;;;7.38;;
21503;SDS011;10913;51.992;9.228;2022-12-07T07:41:27;13.23;;;7.80;;
21503;SDS011;10913;51.992;9.228;2022-12-07T07:43:52;12.10;;;7.50;;
21503;SDS011;10913;51.992;9.228;2022-12-07T07:46:21;16.88;;;8.50;;
21503;SDS011;10913;51.992;9.228;2022-12-07T07:48:47;11.10;;;7.47;;
21503;SDS011;10913;51.992;9.228;2022-12-07T07:51:12;13.77;;;7.72;;
21503;SDS011;10913;51.992;9.228;2022-12-07T07:53:37;12.85;;;7.20;;
21503;SDS011;10913;51.992;9.228;2022-12-07T07:56:03;11.90;;;7.63;;
21503;SDS011;10913;51.992;9.228;2022-12-07T07:58:28;16.15;;;7.68;;
21503;SDS011;10913;51.992;9.228;2022-12-07T08:00:54;13.68;;;6.70;;
21503;SDS011;10913;51.992;9.228;2022-12-07T08:03:19;10.70;;;7.05;;
21503;SDS011;10913;51.992;9.228;2022-12-07T08:05:45;10.75;;;7.43;;
21503;SDS011;10913;51.992;9.228;2022-12-07T08:08:10;11.38;;;7.35;;
21503;SDS011;10913;51.992;9.228;2022-12-07T08:10:36;9.52;;;6.60;;
21503;SDS011;10913;51.992;9.228;2022-12-07T08:13:02;12.95;;;6.65;;
21503;SDS011;10913;51.992;9.228;2022-12-07T08:15:38;10.50;;;6.78;;
21503;SDS011;10913;51.992;9.228;2022-12-07T08:18:08;11.38;;;6.30;;
21503;SDS011;10913;51.992;9.228;2022-12-07T08:20:34;14.88;;;7.38;;
21503;SDS011;10913;51.992;9.228;2022-12-07T08:23:00;11.43;;;6.65;;
21503;SDS011;10913;51.992;9.228;2022-12-07T08:25:26;9.82;;;6.70;;
21503;SDS011;10913;51.992;9.228;2022-12-07T08:27:52;11.48;;;6.72;;
21503;SDS011;10913;51.992;9.228;2022-12-07T08:30:18;9.60;;;5.85;;
21503;SDS011;10913;51.992;9.228;2022-12-07T08:32:44;13.13;;;6.68;;
21503;SDS011;10913;51.992;9.228;2022-12-07T08:35:11;8.95;;;5.80;;
21503;SDS011;10913;51.992;9.228;2022-12-07T08:37:38;8.63;;;5.90;;
21503;SDS011;10913;51.992;9.228;2022-12-07T08:40:04;7.65;;;5.20;;
21503;SDS011;10913;51.992;9.228;2022-12-07T08:42:32;7.55;;;5.53;;
21503;SDS011;10913;51.992;9.228;2022-12-07T08:45:12;9.57;;;5.45;;
21503;SDS011;10913;51.992;9.228;2022-12-07T08:47:40;8.00;;;4.72;;
21503;SDS011;10913;51.992;9.228;2022-12-07T08:50:09;7.07;;;5.15;;
21503;SDS011;10913;51.992;9.228;2022-12-07T08:52:36;5.47;;;4.22;;
21503;SDS011;10913;51.992;9.228;2022-12-07T08:55:02;6.55;;;4.70;;
21503;SDS011;10913;51.992;9.228;2022-12-07T08:57:30;10.00;;;6.22;;
21503;SDS011;10913;51.992;9.228;2022-12-07T08:59:58;7.85;;;4.85;;
21503;SDS011;10913;51.992;9.228;2022-12-07T09:02:23;11.27;;;6.22;;
21503;SDS011;10913;51.992;9.228;2022-12-07T09:04:48;9.20;;;6.00;;
21503;SDS011;10913;51.992;9.228;2022-12-07T09:07:14;8.85;;;5.82;;
21503;SDS011;10913;51.992;9.228;2022-12-07T09:09:40;8.57;;;5.80;;
21503;SDS011;10913;51.992;9.228;2022-12-07T09:12:05;7.95;;;6.00;;
21503;SDS011;10913;51.992;9.228;2022-12-07T09:14:30;7.68;;;5.43;;
21503;SDS011;10913;51.992;9.228;2022-12-07T09:17:04;9.98;;;5.90;;
21503;SDS011;10913;51.992;9.228;2022-12-07T09:19:34;9.35;;;5.43;;
21503;SDS011;10913;51.992;9.228;2022-12-07T09:21:59;7.22;;;5.03;;
21503;SDS011;10913;51.992;9.228;2022-12-07T09:24:25;9.30;;;5.80;;
21503;SDS011;10913;51.992;9.228;2022-12-07T09:26:50;9.00;;;5.20;;
21503;SDS011;10913;51.992;9.228;2022-12-07T09:29:15;7.28;;;4.53;;
21503;SDS011;10913;51.992;9.228;2022-12-07T09:31:41;7.45;;;4.90;;
21503;SDS011;10913;51.992;9.228;2022-12-07T09:34:06;5.55;;;4.10;;
21503;SDS011;10913;51.992;9.228;2022-12-07T09:36:32;9.23;;;5.00;;
21503;SDS011;10913;51.992;9.228;2022-12-07T09:38:57;7.60;;;4.60;;
21503;SDS011;10913;51.992;9.228;2022-12-07T09:41:23;8.80;;;4.80;;
21503;SDS011;10913;51.992;9.228;2022-12-07T09:43:50;10.55;;;4.45;;
21503;SDS011;10913;51.992;9.228;2022-12-07T09:46:17;10.70;;;5.00;;
21503;SDS011;10913;51.992;9.228;2022-12-07T09:48:45;9.25;;;3.88;;
21503;SDS011;10913;51.992;9.228;2022-12-07T09:51:22;9.90;;;4.53;;
21503;SDS011;10913;51.992;9.228;2022-12-07T09:53:49;8.18;;;4.07;;
21503;SDS011;10913;51.992;9.228;2022-12-07T09:56:16;5.95;;;3.72;;
21503;SDS011;10913;51.992;9.228;2022-12-07T09:58:43;8.38;;;4.05;;
21503;SDS011;10913;51.992;9.228;2022-12-07T10:01:17;6.65;;;3.97;;
21503;SDS011;10913;51.992;9.228;2022-12-07T10:06:13;7.30;;;4.10;;
21503;SDS011;10913;51.992;9.228;2022-12-07T10:08:39;6.82;;;3.75;;
21503;SDS011;10913;51.992;9.228;2022-12-07T10:11:06;7.38;;;3.88;;
21503;SDS011;10913;51.992;9.228;2022-12-07T10:13:45;6.82;;;3.53;;
21503;SDS011;10913;51.992;9.228;2022-12-07T10:24:30;7.38;;;3.75;;
21503;SDS011;10913;51.992;9.228;2022-12-07T10:26:56;7.75;;;3.10;;
21503;SDS011;10913;51.992;9.228;2022-12-07T10:29:36;8.98;;;3.28;;
21503;SDS011;10913;51.992;9.228;2022-12-07T10:32:27;6.82;;;3.17;;
21503;SDS011;10913;51.992;9.228;2022-12-07T10:37:52;5.97;;;2.38;;
21503;SDS011;10913;51.992;9.228;2022-12-07T10:45:41;9.68;;;3.15;;
21503;SDS011;10913;51.992;9.228;2022-12-07T11:05:03;5.00;;;2.97;;
21503;SDS011;10913;51.992;9.228;2022-12-07T11:07:48;5.10;;;2.70;;
21503;SDS011;10913;51.992;9.228;2022-12-07T11:10:22;5.13;;;2.38;;
21503;SDS011;10913;51.992;9.228;2022-12-07T11:25:38;7.80;;;2.70;;
21503;SDS011;10913;51.992;9.228;2022-12-07T11:31:24;4.18;;;2.00;;
21503;SDS011;10913;51.992;9.228;2022-12-07T11:36:39;6.75;;;2.20;;
21503;SDS011;10913;51.992;9.228;2022-12-07T11:39:28;5.55;;;2.30;;
21503;SDS011;10913;51.992;9.228;2022-12-07T11:42:01;4.53;;;2.08;;
21503;SDS011;10913;51.992;9.228;2022-12-07T11:44:53;6.88;;;2.13;;
21503;SDS011;10913;51.992;9.228;2022-12-07T12:06:24;6.45;;;2.25;;
21503;SDS011;10913;51.992;9.228;2022-12-07T12:18:00;5.40;;;2.00;;
21503;SDS011;10913;51.992;9.228;2022-12-07T12:20:45;6.68;;;2.30;;
21503;SDS011;10913;51.992;9.228;2022-12-07T12:44:01;7.43;;;2.22;;
21503;SDS011;10913;51.992;9.228;2022-12-07T12:51:46;7.45;;;2.10;;
21503;SDS011;10913;51.992;9.228;2022-12-07T12:54:31;7.10;;;2.30;;
21503;SDS011;10913;51.992;9.228;2022-12-07T12:59:59;6.18;;;1.95;;
21503;SDS011;10913;51.992;9.228;2022-12-07T13:04:59;6.28;;;1.95;;
21503;SDS011;10913;51.992;9.228;2022-12-07T13:18:03;3.92;;;1.85;;
21503;SDS011;10913;51.992;9.228;2022-12-07T13:28:40;5.43;;;2.10;;
21503;SDS011;10913;51.992;9.228;2022-12-07T13:31:24;4.43;;;1.85;;
21503;SDS011;10913;51.992;9.228;2022-12-07T13:36:58;5.65;;;1.90;;
21503;SDS011;10913;51.992;9.228;2022-12-07T13:39:27;6.05;;;1.83;;
21503;SDS011;10913;51.992;9.228;2022-12-07T13:41:57;4.47;;;1.80;;
21503;SDS011;10913;51.992;9.228;2022-12-07T13:44:25;4.88;;;1.95;;
21503;SDS011;10913;51.992;9.228;2022-12-07T13:49:37;5.57;;;1.92;;
21503;SDS011;10913;51.992;9.228;2022-12-07T13:52:15;5.68;;;2.03;;
21503;SDS011;10913;51.992;9.228;2022-12-07T13:54:48;5.60;;;2.00;;
21503;SDS011;10913;51.992;9.228;2022-12-07T13:57:24;5.85;;;1.90;;
21503;SDS011;10913;51.992;9.228;2022-12-07T13:59:51;6.72;;;2.22;;
21503;SDS011;10913;51.992;9.228;2022-12-07T14:02:20;7.93;;;2.38;;
21503;SDS011;10913;51.992;9.228;2022-12-07T14:04:50;7.57;;;2.05;;
21503;SDS011;10913;51.992;9.228;2022-12-07T14:07:23;5.57;;;1.80;;
21503;SDS011;10913;51.992;9.228;2022-12-07T14:10:01;4.78;;;1.75;;
21503;SDS011;10913;51.992;9.228;2022-12-07T14:12:29;5.85;;;1.80;;
21503;SDS011;10913;51.992;9.228;2022-12-07T14:14:57;4.97;;;1.95;;
21503;SDS011;10913;51.992;9.228;2022-12-07T14:17:25;4.88;;;1.98;;
21503;SDS011;10913;51.992;9.228;2022-12-07T14:25:16;6.35;;;1.83;;
21503;SDS011;10913;51.992;9.228;2022-12-07T14:27:48;6.43;;;1.77;;
21503;SDS011;10913;51.992;9.228;2022-12-07T14:30:21;5.53;;;1.77;;
21503;SDS011;10913;51.992;9.228;2022-12-07T14:32:50;5.65;;;1.63;;
21503;SDS011;10913;51.992;9.228;2022-12-07T14:35:19;6.88;;;2.10;;
21503;SDS011;10913;51.992;9.228;2022-12-07T14:37:46;4.32;;;1.70;;
21503;SDS011;10913;51.992;9.228;2022-12-07T14:40:33;5.30;;;1.60;;
21503;SDS011;10913;51.992;9.228;2022-12-07T14:43:11;4.05;;;1.80;;
21503;SDS011;10913;51.992;9.228;2022-12-07T14:45:39;4.65;;;1.70;;
21503;SDS011;10913;51.992;9.228;2022-12-07T14:48:05;5.88;;;1.73;;
21503;SDS011;10913;51.992;9.228;2022-12-07T14:50:35;5.43;;;1.77;;
21503;SDS011;10913;51.992;9.228;2022-12-07T14:53:05;4.10;;;1.80;;
21503;SDS011;10913;51.992;9.228;2022-12-07T14:55:37;6.68;;;1.70;;
21503;SDS011;10913;51.992;9.228;2022-12-07T14:58:03;5.97;;;2.00;;
21503;SDS011;10913;51.992;9.228;2022-12-07T15:00:28;4.80;;;1.60;;
21503;SDS011;10913;51.992;9.228;2022-12-07T15:02:54;6.07;;;2.15;;
21503;SDS011;10913;51.992;9.228;2022-12-07T15:05:21;8.25;;;1.90;;
21503;SDS011;10913;51.992;9.228;2022-12-07T15:07:47;3.75;;;1.83;;
21503;SDS011;10913;51.992;9.228;2022-12-07T15:10:18;6.82;;;1.88;;
21503;SDS011;10913;51.992;9.228;2022-12-07T15:12:46;4.03;;;1.60;;
21503;SDS011;10913;51.992;9.228;2022-12-07T15:15:12;6.10;;;1.83;;
21503;SDS011;10913;51.992;9.228;2022-12-07T15:17:38;7.13;;;2.10;;
21503;SDS011;10913;51.992;9.228;2022-12-07T15:20:03;4.60;;;1.60;;
21503;SDS011;10913;51.992;9.228;2022-12-07T15:22:29;4.15;;;1.58;;
21503;SDS011;10913;51.992;9.228;2022-12-07T15:24:56;5.03;;;1.80;;
21503;SDS011;10913;51.992;9.228;2022-12-07T15:27:22;4.85;;;1.90;;
21503;SDS011;10913;51.992;9.228;2022-12-07T15:29:47;7.28;;;1.73;;
21503;SDS011;10913;51.992;9.228;2022-12-07T15:32:13;5.13;;;1.80;;
21503;SDS011;10913;51.992;9.228;2022-12-07T15:34:38;6.47;;;2.42;;
21503;SDS011;10913;51.992;9.228;2022-12-07T15:37:03;9.13;;;2.00;;
21503;SDS011;10913;51.992;9.228;2022-12-07T15:39:29;7.13;;;2.35;;
21503;SDS011;10913;51.992;9.228;2022-12-07T15:41:54;7.40;;;2.97;;
21503;SDS011;10913;51.992;9.228;2022-12-07T15:44:19;7.43;;;2.63;;
21503;SDS011;10913;51.992;9.228;2022-12-07T15:47:04;4.17;;;1.87;;
21503;SDS011;10913;51.992;9.228;2022-12-07T15:49:29;5.72;;;1.90;;
21503;SDS011;10913;51.992;9.228;2022-12-07T15:51:55;6.13;;;2.00;;
21503;SDS011;10913;51.992;9.228;2022-12-07T15:54:27;6.88;;;1.98;;
21503;SDS011;10913;51.992;9.228;2022-12-07T15:56:53;6.20;;;1.70;;
21503;SDS011;10913;51.992;9.228;2022-12-07T15:59:19;7.38;;;2.20;;
21503;SDS011;10913;51.992;9.228;2022-12-07T16:01:45;3.97;;;1.95;;
21503;SDS011;10913;51.992;9.228;2022-12-07T16:04:10;6.13;;;2.22;;
21503;SDS011;10913;51.992;9.228;2022-12-07T16:06:36;8.18;;;2.05;;
21503;SDS011;10913;51.992;9.228;2022-12-07T16:09:02;6.13;;;1.95;;
21503;SDS011;10913;51.992;9.228;2022-12-07T16:11:28;3.17;;;2.00;;
21503;SDS011;10913;51.992;9.228;2022-12-07T16:13:53;7.00;;;2.00;;
21503;SDS011;10913;51.992;9.228;2022-12-07T16:16:19;5.97;;;1.90;;
21503;SDS011;10913;51.992;9.228;2022-12-07T16:18:46;4.88;;;1.80;;
21503;SDS011;10913;51.992;9.228;2022-12-07T16:21:12;5.53;;;1.92;;
21503;SDS011;10913;51.992;9.228;2022-12-07T16:23:39;6.63;;;1.90;;
21503;SDS011;10913;51.992;9.228;2022-12-07T16:26:11;3.45;;;1.88;;
21503;SDS011;10913;51.992;9.228;2022-12-07T16:28:39;6.35;;;2.25;;
21503;SDS011;10913;51.992;9.228;2022-12-07T16:31:06;5.80;;;2.05;;
21503;SDS011;10913;51.992;9.228;2022-12-07T16:33:35;6.78;;;2.20;;
21503;SDS011;10913;51.992;9.228;2022-12-07T16:36:01;5.82;;;2.03;;
21503;SDS011;10913;51.992;9.228;2022-12-07T16:38:27;7.30;;;2.05;;
21503;SDS011;10913;51.992;9.228;2022-12-07T16:40:53;7.07;;;2.25;;
21503;SDS011;10913;51.992;9.228;2022-12-07T16:43:19;4.25;;;2.05;;
21503;SDS011;10913;51.992;9.228;2022-12-07T16:45:45;4.47;;;2.17;;
21503;SDS011;10913;51.992;9.228;2022-12-07T16:48:11;5.25;;;2.00;;
21503;SDS011;10913;51.992;9.228;2022-12-07T16:50:41;7.07;;;2.10;;
21503;SDS011;10913;51.992;9.228;2022-12-07T16:53:10;6.63;;;2.28;;
21503;SDS011;10913;51.992;9.228;2022-12-07T16:55:37;6.20;;;2.20;;
21503;SDS011;10913;51.992;9.228;2022-12-07T16:58:06;7.03;;;2.47;;
21503;SDS011;10913;51.992;9.228;2022-12-07T17:00:32;5.85;;;2.20;;
21503;SDS011;10913;51.992;9.228;2022-12-07T17:02:58;6.00;;;2.47;;
21503;SDS011;10913;51.992;9.228;2022-12-07T17:05:25;5.68;;;2.25;;
21503;SDS011;10913;51.992;9.228;2022-12-07T17:07:52;5.38;;;2.35;;
21503;SDS011;10913;51.992;9.228;2022-12-07T17:10:18;7.45;;;2.63;;
21503;SDS011;10913;51.992;9.228;2022-12-07T17:12:43;8.07;;;2.60;;
21503;SDS011;10913;51.992;9.228;2022-12-07T17:15:09;7.40;;;2.55;;
21503;SDS011;10913;51.992;9.228;2022-12-07T17:20:22;7.32;;;2.55;;
21503;SDS011;10913;51.992;9.228;2022-12-07T17:22:50;5.85;;;2.65;;
21503;SDS011;10913;51.992;9.228;2022-12-07T17:25:16;6.90;;;2.50;;
21503;SDS011;10913;51.992;9.228;2022-12-07T17:27:42;4.97;;;2.40;;
21503;SDS011;10913;51.992;9.228;2022-12-07T17:30:09;8.55;;;2.60;;
21503;SDS011;10913;51.992;9.228;2022-12-07T17:32:34;3.72;;;2.30;;
21503;SDS011;10913;51.992;9.228;2022-12-07T17:35:00;4.15;;;2.05;;
21503;SDS011;10913;51.992;9.228;2022-12-07T17:37:25;5.75;;;2.20;;
21503;SDS011;10913;51.992;9.228;2022-12-07T17:39:51;5.68;;;2.15;;
21503;SDS011;10913;51.992;9.228;2022-12-07T17:42:20;5.82;;;2.17;;